Terminal Aerodrome Forecast
Issued by NWS Lake Charles, LA

Home | Current Version | Previous Version | Text Only | Print | Product List | Glossary On
Versions: 1 2 3 4 5 6 7 8 9 10 11 12 13 14 15 16
854
FTUS44 KLCH 141120
TAFLFT
TAF
KLFT 141120Z 1412/1512 00000KT P6SM BKN050
     FM141500 14008KT P6SM SCT050
     FM141800 15012G20KT P6SM BKN050
     FM150300 14008KT 5SM BR VCSH OVC015 PROB30 1506/1512 3SM SHRA
      OVC008=

USA.gov is the U.S. government's official web portal to all federal, state and local government web resources and services.